In Rescue
 
Open Full Screen Window  High Contrast Mode
Wind Gusting 20 knots
13
October 25, 2021 4:43 PM EDT
Weather Information
Wind Direction
  050 °
Wind Speed
  13 kt (15 mph)
Wind Gust
  20 kt (23 mph)
Altimeter
30.03 in
Visibility
10 SM
Temperature
09° C
48° F
Dewpoint
05° C
41° F
Humidity
76%
Sky Condition
Broken @ 2,800 ft
Broken @ 2,200 ft
MVFR

METAR KPZQ 252043Z AUTO 05013G20KT 10SM BKN022 BKN028 09/05 A3003 RMK AO2 T00900048

FAA Disclaimer: The data displayed is for advisory purposes only and is not to be used for flight planning or operations.